Time;durP1;ratioP1;P1;durP2;ratioP2;P2;SDS_P1;SDS_P2;PMS_P1;PMS_P2;Temp;Humidity;BMP_temperature;BMP_pressure;BME280_temperature;BME280_humidity;BME280_pressure;Samples;Min_cycle;Max_cycle;Signal;HPM_P1;HPM_P2
2023/03/07 00:02:02;;;;;;;19.40;11.30;;;3.80;99.90;;;;;;5040219;28;20528;-47
2023/03/07 00:04:29;;;;;;;18.00;11.77;;;3.90;99.90;;;;;;5035014;28;20525;-48
2023/03/07 00:06:56;;;;;;;18.77;10.90;;;3.80;99.90;;;;;;5051149;28;20570;-47
2023/03/07 00:09:24;;;;;;;20.47;12.80;;;3.70;99.90;;;;;;5054379;28;20449;-47
2023/03/07 00:11:51;;;;;;;20.13;12.40;;;3.80;99.90;;;;;;5044138;28;20542;-47
2023/03/07 00:14:18;;;;;;;15.80;10.20;;;3.70;99.90;;;;;;5033145;28;20487;-47
2023/03/07 00:16:45;;;;;;;18.20;11.50;;;3.50;99.90;;;;;;5033001;28;20556;-47
2023/03/07 00:19:12;;;;;;;15.17;12.20;;;3.30;99.90;;;;;;5032435;28;20883;-49
2023/03/07 00:21:39;;;;;;;17.07;10.90;;;3.40;99.90;;;;;;5040365;28;20810;-49
2023/03/07 00:24:06;;;;;;;20.00;12.33;;;3.60;99.90;;;;;;5052890;28;20526;-46
2023/03/07 00:26:38;;;;;;;18.70;11.87;;;3.70;99.90;;;;;;5053248;28;20494;-48
2023/03/07 00:29:06;;;;;;;19.47;11.10;;;3.70;99.90;;;;;;5054333;28;20534;-46
2023/03/07 00:31:33;;;;;;;18.67;12.20;;;3.60;99.90;;;;;;5051426;28;20507;-46
2023/03/07 00:34:00;;;;;;;18.53;12.13;;;3.50;99.90;;;;;;5053826;28;20522;-47
2023/03/07 00:36:27;;;;;;;20.33;13.10;;;3.50;99.90;;;;;;5054392;28;20500;-47
2023/03/07 00:38:54;;;;;;;20.73;12.77;;;3.10;99.90;;;;;;5054077;28;20523;-47
2023/03/07 00:41:23;;;;;;;18.77;13.00;;;2.80;99.90;;;;;;5048857;28;20988;-47
2023/03/07 00:43:52;;;;;;;19.40;11.70;;;2.90;99.90;;;;;;5034129;28;20809;-48
2023/03/07 00:46:21;;;;;;;22.23;13.80;;;2.90;99.90;;;;;;5042880;28;20466;-46
2023/03/07 00:48:48;;;;;;;20.13;11.90;;;2.90;99.90;;;;;;5053483;28;20518;-49
2023/03/07 00:51:17;;;;;;;24.13;13.00;;;3.10;99.90;;;;;;5049189;28;20473;-47
2023/03/07 00:53:44;;;;;;;18.17;11.50;;;2.90;99.90;;;;;;5032197;28;20487;-46
2023/03/07 00:56:14;;;;;;;22.37;12.53;;;2.60;99.90;;;;;;5096854;22;20582;-48
2023/03/07 00:58:41;;;;;;;16.50;12.00;;;2.50;99.90;;;;;;5054647;28;20522;-50
2023/03/07 01:01:11;;;;;;;19.93;12.00;;;2.60;99.90;;;;;;5068320;28;20530;-47
2023/03/07 01:03:38;;;;;;;20.07;13.27;;;2.60;99.90;;;;;;5055175;28;20517;-49
2023/03/07 01:06:08;;;;;;;21.70;13.00;;;2.70;99.90;;;;;;5072477;28;20496;-50
2023/03/07 01:08:36;;;;;;;18.03;12.23;;;2.80;99.90;;;;;;5073633;28;20520;-48
2023/03/07 01:11:05;;;;;;;22.00;13.20;;;2.70;99.90;;;;;;5071624;28;20538;-48
2023/03/07 01:13:33;;;;;;;21.70;13.73;;;2.80;99.90;;;;;;5053439;28;20543;-48
2023/03/07 01:16:09;;;;;;;24.80;13.10;;;2.70;99.90;;;;;;5052460;28;20471;-49
2023/03/07 01:18:36;;;;;;;26.80;12.67;;;2.60;99.90;;;;;;5055991;28;20462;-50
2023/03/07 01:21:11;;;;;;;17.13;11.97;;;2.80;99.90;;;;;;5052695;28;20522;-48
2023/03/07 01:23:38;;;;;;;20.83;13.83;;;2.90;99.90;;;;;;5058459;28;21035;-49
2023/03/07 01:26:05;;;;;;;18.97;12.37;;;3.00;99.90;;;;;;5051809;28;20472;-49
2023/03/07 01:28:32;;;;;;;23.00;12.23;;;3.10;99.90;;;;;;5059543;28;20564;-48
2023/03/07 01:30:59;;;;;;;21.17;13.10;;;3.10;99.90;;;;;;5072928;28;20467;-47
2023/03/07 01:33:28;;;;;;;21.00;12.90;;;3.20;99.90;;;;;;5072788;28;20870;-50
2023/03/07 01:35:54;;;;;;;19.83;14.97;;;2.80;99.90;;;;;;5072983;28;20505;-49
2023/03/07 01:38:21;;;;;;;17.93;11.73;;;2.60;99.90;;;;;;5071621;28;20537;-48
2023/03/07 01:40:49;;;;;;;15.10;11.30;;;2.70;99.90;;;;;;5071328;28;20527;-48
2023/03/07 01:43:27;;;;;;;20.20;12.40;;;2.70;99.90;;;;;;5071304;28;20451;-48
2023/03/07 01:46:36;;;;;;;21.63;12.73;;;2.80;99.90;;;;;;5071187;28;20528;-48
2023/03/07 01:49:09;;;;;;;17.87;10.53;;;2.00;99.90;;;;;;5071433;28;20940;-48
2023/03/07 01:51:39;;;;;;;18.93;12.13;;;2.40;99.90;;;;;;5071285;28;20453;-49
2023/03/07 01:54:07;;;;;;;19.00;12.67;;;2.30;99.90;;;;;;5073364;28;20527;-48
2023/03/07 01:56:36;;;;;;;16.80;11.40;;;2.60;99.90;;;;;;5071755;28;20559;-48
2023/03/07 01:59:03;;;;;;;18.90;11.67;;;2.80;99.90;;;;;;5052718;28;20987;-48
2023/03/07 02:01:31;;;;;;;20.63;11.57;;;2.80;99.90;;;;;;5062488;28;20478;-46
2023/03/07 02:04:02;;;;;;;19.20;12.73;;;2.50;99.90;;;;;;5072796;28;20614;-50
2023/03/07 02:06:33;;;;;;;19.07;13.07;;;2.40;99.90;;;;;;5073019;28;20552;-47
2023/03/07 02:09:02;;;;;;;22.10;13.33;;;2.50;99.90;;;;;;5072185;28;20471;-49
2023/03/07 02:11:30;;;;;;;20.27;14.30;;;2.60;99.90;;;;;;5072680;28;20445;-47
2023/03/07 02:13:57;;;;;;;21.43;12.13;;;2.60;99.90;;;;;;5072357;28;20485;-48
2023/03/07 02:16:24;;;;;;;17.90;11.80;;;2.70;99.90;;;;;;5069695;28;20490;-48
2023/03/07 02:18:51;;;;;;;26.80;14.67;;;2.70;99.90;;;;;;5070167;28;20938;-48
2023/03/07 02:21:31;;;;;;;24.50;14.13;;;2.80;99.90;;;;;;5070399;28;20894;-47
2023/03/07 02:24:06;;;;;;;21.63;13.70;;;2.80;99.90;;;;;;5071038;28;20475;-48
2023/03/07 02:26:43;;;;;;;21.10;13.63;;;2.80;99.90;;;;;;5070323;28;20968;-48
2023/03/07 02:29:11;;;;;;;22.90;12.90;;;2.80;99.90;;;;;;5069075;28;20476;-48
2023/03/07 02:31:38;;;;;;;19.03;13.00;;;2.70;99.90;;;;;;5066634;28;20534;-50
2023/03/07 02:34:18;;;;;;;20.17;14.60;;;2.80;99.90;;;;;;5064213;28;20895;-50
2023/03/07 02:36:46;;;;;;;21.53;14.37;;;2.80;99.90;;;;;;5069932;28;20457;-50
2023/03/07 02:39:13;;;;;;;22.23;13.50;;;2.60;99.90;;;;;;5071338;28;20473;-49
2023/03/07 02:41:42;;;;;;;18.23;13.27;;;2.60;99.90;;;;;;5071375;28;20443;-48
2023/03/07 02:44:09;;;;;;;19.87;12.87;;;2.70;99.90;;;;;;5071839;28;20499;-48
2023/03/07 02:46:36;;;;;;;23.17;12.83;;;2.70;99.90;;;;;;5071674;28;20891;-48
2023/03/07 02:49:03;;;;;;;16.90;12.73;;;2.70;99.90;;;;;;5071642;28;20483;-48
2023/03/07 02:51:30;;;;;;;20.50;13.67;;;2.80;99.90;;;;;;5069202;28;20472;-47
2023/03/07 02:53:57;;;;;;;20.80;12.80;;;2.80;99.90;;;;;;5071142;28;20528;-49
2023/03/07 02:56:23;;;;;;;22.07;14.33;;;2.70;99.90;;;;;;5069367;28;20561;-48
2023/03/07 02:58:52;;;;;;;22.60;14.40;;;2.70;99.90;;;;;;5046396;28;20522;-49
2023/03/07 03:01:19;;;;;;;20.43;13.70;;;2.60;99.90;;;;;;5049734;28;20470;-48
2023/03/07 03:03:45;;;;;;;21.87;15.20;;;2.70;99.90;;;;;;5049779;28;20526;-47
2023/03/07 03:06:12;;;;;;;21.00;13.27;;;2.80;99.90;;;;;;5056762;28;20497;-48
2023/03/07 03:08:39;;;;;;;18.97;13.67;;;2.80;99.90;;;;;;5070045;28;20575;-48
2023/03/07 03:11:06;;;;;;;23.30;15.00;;;2.90;99.90;;;;;;5071642;28;20487;-47
2023/03/07 03:13:33;;;;;;;21.67;13.83;;;2.80;99.90;;;;;;5070823;28;20479;-49
2023/03/07 03:16:01;;;;;;;21.60;14.50;;;2.80;99.90;;;;;;5071202;28;21058;-47
2023/03/07 03:18:29;;;;;;;24.20;14.90;;;2.90;99.90;;;;;;5070964;28;20475;-48
2023/03/07 03:20:57;;;;;;;22.90;14.30;;;3.00;99.90;;;;;;5063154;28;20904;-48
2023/03/07 03:23:26;;;;;;;22.30;13.97;;;2.90;99.90;;;;;;5049776;28;20446;-48
2023/03/07 03:25:58;;;;;;;21.70;13.87;;;2.90;99.90;;;;;;5049821;28;20502;-48
2023/03/07 03:28:25;;;;;;;22.77;14.97;;;2.80;99.90;;;;;;5049442;28;20497;-48
2023/03/07 03:31:01;;;;;;;21.63;13.60;;;2.80;99.90;;;;;;5049305;28;20890;-48
2023/03/07 03:33:29;;;;;;;22.40;13.67;;;2.90;99.90;;;;;;5067599;28;20477;-49
2023/03/07 03:35:56;;;;;;;27.60;15.13;;;2.90;99.90;;;;;;5069100;28;20741;-48
2023/03/07 03:38:23;;;;;;;19.30;12.70;;;2.90;99.90;;;;;;5061289;28;20485;-47
2023/03/07 03:40:50;;;;;;;19.97;13.07;;;2.90;99.90;;;;;;5041863;28;20540;-48
2023/03/07 03:43:18;;;;;;;21.27;14.43;;;2.90;99.90;;;;;;5047757;28;20819;-47
2023/03/07 03:45:53;;;;;;;21.40;14.60;;;2.90;99.90;;;;;;5050433;28;20637;-48
2023/03/07 03:48:21;;;;;;;22.00;12.93;;;2.90;99.90;;;;;;5030699;28;20508;-48
2023/03/07 03:50:48;;;;;;;25.60;14.40;;;2.90;99.90;;;;;;5046050;28;20522;-48
2023/03/07 03:53:15;;;;;;;19.27;13.97;;;2.90;99.90;;;;;;5064863;28;20530;-49
2023/03/07 03:55:42;;;;;;;22.47;13.97;;;2.70;99.90;;;;;;5068806;28;20509;-48
2023/03/07 03:58:09;;;;;;;20.90;13.50;;;2.60;99.90;;;;;;5069722;28;20520;-48
2023/03/07 04:00:37;;;;;;;23.23;15.13;;;2.70;99.90;;;;;;5069648;28;20818;-47
2023/03/07 04:03:04;;;;;;;22.30;13.27;;;2.70;99.90;;;;;;5069350;28;21047;-49
2023/03/07 04:05:34;;;;;;;26.57;13.80;;;2.80;99.90;;;;;;5069434;28;20466;-47
2023/03/07 04:08:01;;;;;;;22.10;13.10;;;2.70;99.90;;;;;;5069253;28;20449;-49
2023/03/07 04:10:28;;;;;;;21.97;13.73;;;2.70;99.90;;;;;;5066105;28;20950;-47
2023/03/07 04:12:55;;;;;;;23.77;14.23;;;2.60;99.90;;;;;;5050564;28;20523;-48
2023/03/07 04:15:22;;;;;;;20.17;15.83;;;2.70;99.90;;;;;;5068332;28;20499;-48
2023/03/07 04:17:49;;;;;;;20.30;15.00;;;2.70;99.90;;;;;;5069612;28;20489;-48
2023/03/07 04:20:17;;;;;;;27.87;15.53;;;2.80;99.90;;;;;;5050002;28;20503;-46
2023/03/07 04:22:46;;;;;;;25.93;14.00;;;2.80;99.90;;;;;;5061032;28;20474;-49
2023/03/07 04:25:12;;;;;;;24.43;14.30;;;2.70;99.90;;;;;;5070130;28;20525;-49
2023/03/07 04:27:39;;;;;;;25.00;14.40;;;2.80;99.90;;;;;;5069261;28;20542;-48
2023/03/07 04:30:07;;;;;;;22.93;14.20;;;2.80;99.90;;;;;;5068808;28;20569;-48
2023/03/07 04:32:34;;;;;;;23.93;13.67;;;2.80;99.90;;;;;;5067711;28;20475;-47
2023/03/07 04:35:01;;;;;;;20.17;15.10;;;2.80;99.90;;;;;;5051623;28;20529;-49
2023/03/07 04:37:28;;;;;;;25.43;14.20;;;2.80;99.90;;;;;;5068575;28;20939;-49
2023/03/07 04:39:56;;;;;;;19.80;13.60;;;2.80;99.90;;;;;;5068904;28;20466;-46
2023/03/07 04:42:23;;;;;;;25.97;15.07;;;2.80;99.90;;;;;;5070176;28;20485;-47
2023/03/07 04:44:50;;;;;;;21.40;14.37;;;2.80;99.90;;;;;;5070289;28;20542;-48
2023/03/07 04:47:17;;;;;;;22.77;14.60;;;2.80;99.90;;;;;;5070168;28;20894;-47
2023/03/07 04:49:44;;;;;;;21.27;13.80;;;2.80;99.90;;;;;;5069562;28;20510;-48
2023/03/07 04:52:11;;;;;;;22.80;14.90;;;2.90;99.90;;;;;;5053554;28;20490;-48
2023/03/07 04:54:39;;;;;;;23.33;15.57;;;2.90;99.90;;;;;;5052640;28;21208;-48
2023/03/07 04:57:08;;;;;;;20.03;16.20;;;3.00;99.90;;;;;;5052256;28;21100;-48
2023/03/07 04:59:38;;;;;;;23.57;15.00;;;2.90;99.90;;;;;;5052381;28;20454;-49
2023/03/07 05:02:05;;;;;;;25.70;15.27;;;3.00;99.90;;;;;;5064538;28;20453;-48
2023/03/07 05:04:32;;;;;;;21.13;14.60;;;2.90;99.90;;;;;;5072100;28;20536;-49
2023/03/07 05:07:00;;;;;;;21.73;14.13;;;2.80;99.90;;;;;;5070231;28;20468;-48
2023/03/07 05:09:26;;;;;;;24.33;14.67;;;2.90;99.90;;;;;;5073325;28;20574;-49
2023/03/07 05:11:53;;;;;;;24.90;15.37;;;2.80;99.90;;;;;;5073706;28;20480;-48
2023/03/07 05:14:22;;;;;;;21.73;14.93;;;2.90;99.90;;;;;;5073726;28;20481;-47
2023/03/07 05:16:49;;;;;;;24.87;15.77;;;2.90;99.90;;;;;;5073520;28;20542;-50
2023/03/07 05:19:15;;;;;;;19.73;13.80;;;2.90;99.90;;;;;;5073433;28;20541;-48
2023/03/07 05:21:43;;;;;;;21.37;14.80;;;2.90;99.90;;;;;;5065453;28;20528;-46
2023/03/07 05:24:10;;;;;;;20.30;13.87;;;2.70;99.90;;;;;;5073146;28;20499;-48
2023/03/07 05:26:37;;;;;;;23.30;14.10;;;2.80;99.90;;;;;;5059782;28;20504;-48
2023/03/07 05:29:04;;;;;;;19.60;15.40;;;2.80;99.90;;;;;;5062064;28;20576;-49
2023/03/07 05:31:32;;;;;;;22.33;15.37;;;2.80;99.90;;;;;;5056143;28;20451;-48
2023/03/07 05:33:59;;;;;;;24.23;15.43;;;2.90;99.90;;;;;;5053072;28;20449;-48
2023/03/07 05:36:26;;;;;;;21.17;13.13;;;2.80;99.90;;;;;;5053390;28;20565;-49
2023/03/07 05:38:55;;;;;;;23.40;14.97;;;2.90;99.90;;;;;;5042232;28;20989;-48
2023/03/07 05:41:22;;;;;;;22.87;14.70;;;2.80;99.90;;;;;;5068917;28;20459;-48
2023/03/07 05:43:49;;;;;;;21.37;14.83;;;2.80;99.90;;;;;;5066919;28;20471;-49
2023/03/07 05:46:16;;;;;;;23.93;15.40;;;2.80;99.90;;;;;;5051037;28;20496;-48
2023/03/07 05:48:44;;;;;;;30.20;15.37;;;2.90;99.90;;;;;;5051486;28;20516;-49
2023/03/07 05:51:11;;;;;;;28.73;16.13;;;2.90;99.90;;;;;;5069100;28;20953;-48
2023/03/07 05:53:38;;;;;;;23.63;14.63;;;2.80;99.90;;;;;;5054188;28;21018;-48
2023/03/07 05:56:05;;;;;;;22.13;15.37;;;2.90;99.90;;;;;;5054508;28;20481;-49
2023/03/07 05:58:32;;;;;;;25.43;16.80;;;2.80;99.90;;;;;;5049627;28;20526;-48
2023/03/07 06:01:02;;;;;;;25.93;14.30;;;2.80;99.90;;;;;;5053978;28;21125;-49
2023/03/07 06:03:28;;;;;;;24.10;14.47;;;2.80;99.90;;;;;;5050012;28;20477;-47
2023/03/07 06:05:57;;;;;;;23.27;16.20;;;2.80;99.90;;;;;;5048625;28;20539;-49
2023/03/07 06:08:24;;;;;;;25.33;14.90;;;2.80;99.90;;;;;;5048382;28;20902;-45
2023/03/07 06:10:51;;;;;;;23.43;16.00;;;2.80;99.90;;;;;;5054195;28;20558;-50
2023/03/07 06:13:20;;;;;;;27.30;15.90;;;2.80;99.90;;;;;;5069904;28;20483;-48
2023/03/07 06:15:49;;;;;;;23.80;15.90;;;2.60;99.90;;;;;;5065485;28;20494;-47
2023/03/07 06:18:16;;;;;;;22.83;14.77;;;2.70;99.90;;;;;;5051196;28;20442;-48
2023/03/07 06:20:43;;;;;;;24.27;15.43;;;2.80;99.90;;;;;;5050650;28;21013;-48
2023/03/07 06:23:11;;;;;;;23.40;14.07;;;2.90;99.90;;;;;;5052160;28;20449;-50
2023/03/07 06:25:38;;;;;;;20.80;13.57;;;2.80;99.90;;;;;;5051557;28;20544;-49
2023/03/07 06:28:05;;;;;;;26.43;16.37;;;2.90;99.90;;;;;;5052445;28;20473;-48
2023/03/07 06:30:32;;;;;;;23.30;14.80;;;2.90;99.90;;;;;;5050292;28;20475;-47
2023/03/07 06:32:59;;;;;;;31.47;18.70;;;2.70;99.90;;;;;;5050607;28;20530;-47
2023/03/07 06:35:26;;;;;;;25.70;16.87;;;2.70;99.90;;;;;;5051403;28;20549;-48
2023/03/07 06:37:52;;;;;;;28.67;16.77;;;2.80;99.90;;;;;;5050923;28;20471;-49
2023/03/07 06:40:21;;;;;;;25.03;16.77;;;2.80;99.90;;;;;;5050698;28;20534;-48
2023/03/07 06:42:48;;;;;;;27.10;16.00;;;2.90;99.90;;;;;;5050654;28;20472;-48
2023/03/07 06:45:14;;;;;;;29.00;17.90;;;3.00;99.90;;;;;;5050485;28;20533;-48
2023/03/07 06:47:41;;;;;;;31.73;19.20;;;3.00;99.90;;;;;;5048109;28;20870;-48
2023/03/07 06:50:09;;;;;;;27.57;17.80;;;3.00;99.90;;;;;;5050305;28;21073;-49
2023/03/07 06:52:36;;;;;;;29.00;16.20;;;3.10;99.90;;;;;;5050638;28;20539;-48
2023/03/07 06:55:04;;;;;;;25.13;16.27;;;3.10;99.90;;;;;;5028903;28;1215417;-47
2023/03/07 06:57:33;;;;;;;24.37;16.00;;;3.10;99.90;;;;;;5052046;28;20254;-50
2023/03/07 07:00:00;;;;;;;21.57;15.37;;;3.00;99.90;;;;;;5051081;28;20445;-48
2023/03/07 07:02:27;;;;;;;22.20;15.50;;;3.00;99.90;;;;;;5050643;28;20534;-48
2023/03/07 07:04:54;;;;;;;24.57;15.67;;;2.90;99.90;;;;;;5051889;28;20532;-50
2023/03/07 07:07:20;;;;;;;21.00;15.77;;;3.00;99.90;;;;;;5051676;28;21010;-48
2023/03/07 07:09:47;;;;;;;26.90;16.70;;;3.10;99.90;;;;;;5051567;28;20506;-48
2023/03/07 07:12:14;;;;;;;30.00;16.80;;;3.20;99.90;;;;;;5049684;28;21013;-48
2023/03/07 07:14:43;;;;;;;22.27;15.00;;;3.30;99.90;;;;;;5050153;28;21048;-48
2023/03/07 07:17:10;;;;;;;24.70;13.60;;;3.30;99.90;;;;;;5050027;28;20548;-48
2023/03/07 07:19:36;;;;;;;20.40;13.83;;;3.30;99.90;;;;;;5049926;28;21043;-48
2023/03/07 07:22:05;;;;;;;27.50;15.67;;;3.30;99.90;;;;;;5049900;28;20477;-48
2023/03/07 07:24:32;;;;;;;23.30;15.03;;;3.30;99.90;;;;;;5049972;28;20867;-48
2023/03/07 07:26:58;;;;;;;27.43;15.67;;;3.10;99.90;;;;;;5051013;28;20542;-48
2023/03/07 07:29:26;;;;;;;21.83;13.93;;;3.00;99.90;;;;;;5051142;28;20516;-48
2023/03/07 07:31:54;;;;;;;22.70;15.17;;;3.00;99.90;;;;;;5051063;28;20455;-50
2023/03/07 07:34:21;;;;;;;18.80;15.00;;;3.10;99.90;;;;;;5051464;28;20453;-49
2023/03/07 07:36:48;;;;;;;27.23;17.90;;;3.10;99.90;;;;;;5051130;28;20498;-48
2023/03/07 07:39:16;;;;;;;23.40;16.10;;;3.10;99.90;;;;;;5050475;28;20930;-48
2023/03/07 07:41:44;;;;;;;22.00;16.90;;;3.10;99.90;;;;;;5051291;28;20449;-48
2023/03/07 07:44:11;;;;;;;25.47;17.00;;;3.10;99.90;;;;;;5051417;28;20514;-47
2023/03/07 07:46:38;;;;;;;33.63;15.97;;;3.10;99.90;;;;;;5050944;28;21059;-48
2023/03/07 07:49:06;;;;;;;22.93;15.90;;;3.10;99.90;;;;;;5050978;28;20525;-48
2023/03/07 07:51:33;;;;;;;29.43;14.60;;;3.20;99.90;;;;;;5050546;28;20488;-48
2023/03/07 07:54:00;;;;;;;22.93;14.43;;;3.10;99.90;;;;;;5051407;28;20444;-49
2023/03/07 07:56:27;;;;;;;24.07;16.30;;;3.00;99.90;;;;;;5050693;28;20564;-48
2023/03/07 07:58:54;;;;;;;31.97;17.00;;;3.10;99.90;;;;;;5050669;28;20527;-48
2023/03/07 08:01:23;;;;;;;22.90;17.00;;;3.10;99.90;;;;;;5050528;28;20479;-47
2023/03/07 08:03:50;;;;;;;32.90;17.67;;;3.00;99.90;;;;;;5050999;28;21028;-48
2023/03/07 08:06:20;;;;;;;31.57;17.77;;;3.10;99.90;;;;;;5050665;28;20500;-48
2023/03/07 08:08:48;;;;;;;22.93;17.07;;;3.10;99.90;;;;;;5050846;28;20502;-47
2023/03/07 08:11:14;;;;;;;27.20;17.83;;;3.00;99.90;;;;;;5050983;28;20796;-47
2023/03/07 08:13:41;;;;;;;25.90;16.40;;;3.00;99.90;;;;;;5050782;28;20486;-48
2023/03/07 08:16:10;;;;;;;26.20;15.73;;;3.10;99.90;;;;;;5050894;28;21029;-48
2023/03/07 08:18:36;;;;;;;25.33;16.60;;;3.10;99.90;;;;;;5050429;28;20533;-47
2023/03/07 08:21:04;;;;;;;21.20;15.57;;;3.10;99.90;;;;;;5050655;28;20471;-48
2023/03/07 08:23:32;;;;;;;28.80;18.03;;;3.10;99.90;;;;;;5052156;28;21017;-47
2023/03/07 08:26:02;;;;;;;25.43;15.47;;;3.20;99.90;;;;;;5054948;28;20550;-47
2023/03/07 08:28:29;;;;;;;26.73;15.90;;;3.00;99.90;;;;;;5054400;28;20952;-47
2023/03/07 08:30:56;;;;;;;30.17;17.47;;;3.00;99.90;;;;;;5054176;28;20560;-49
2023/03/07 08:33:22;;;;;;;24.57;15.37;;;3.20;99.90;;;;;;5054727;28;20797;-48
2023/03/07 08:35:49;;;;;;;28.87;16.30;;;3.30;99.90;;;;;;5054465;28;21056;-48
2023/03/07 08:38:16;;;;;;;22.17;14.00;;;3.30;99.90;;;;;;5054564;28;20525;-47
2023/03/07 08:40:44;;;;;;;27.23;16.23;;;3.20;99.90;;;;;;5053760;28;20533;-48
2023/03/07 08:43:11;;;;;;;24.53;16.47;;;3.40;99.90;;;;;;5054264;28;20474;-47
2023/03/07 08:45:40;;;;;;;23.07;13.97;;;3.50;99.90;;;;;;5054367;28;20546;-50
2023/03/07 08:48:09;;;;;;;26.53;14.10;;;3.40;99.90;;;;;;5054373;28;20440;-47
2023/03/07 08:50:38;;;;;;;21.30;14.47;;;3.40;99.90;;;;;;5054121;28;20488;-48
2023/03/07 08:53:05;;;;;;;26.90;16.30;;;3.60;99.90;;;;;;5054049;28;21032;-49
2023/03/07 08:55:35;;;;;;;25.20;16.07;;;3.70;99.90;;;;;;5053810;28;20572;-48
2023/03/07 08:58:03;;;;;;;26.23;15.50;;;3.80;99.90;;;;;;5053956;28;20491;-47
2023/03/07 09:00:30;;;;;;;21.87;14.77;;;3.90;99.90;;;;;;5053585;28;20932;-48
2023/03/07 09:03:00;;;;;;;26.20;16.30;;;3.90;99.90;;;;;;5054142;28;20476;-50
2023/03/07 09:05:27;;;;;;;28.87;14.70;;;4.00;99.90;;;;;;5054292;28;20502;-48
2023/03/07 09:07:54;;;;;;;21.10;15.20;;;4.00;99.90;;;;;;5053975;28;20531;-48
2023/03/07 09:10:21;;;;;;;24.40;14.13;;;3.90;99.90;;;;;;5053712;28;20510;-48
2023/03/07 09:12:49;;;;;;;21.67;14.37;;;3.90;99.90;;;;;;5054146;28;20542;-48
2023/03/07 09:15:18;;;;;;;17.97;14.13;;;4.20;99.90;;;;;;5053815;28;20506;-48
2023/03/07 09:17:45;;;;;;;22.60;13.87;;;4.20;99.90;;;;;;5053739;28;20467;-47
2023/03/07 09:20:13;;;;;;;27.63;13.30;;;4.40;99.90;;;;;;5053242;28;20482;-48
2023/03/07 09:22:39;;;;;;;26.37;16.73;;;4.30;99.90;;;;;;5053383;28;20812;-48
2023/03/07 09:25:07;;;;;;;25.43;14.50;;;4.50;99.90;;;;;;5053432;28;20877;-49
2023/03/07 09:27:34;;;;;;;29.63;17.47;;;4.70;99.90;;;;;;5053658;28;20531;-48
2023/03/07 09:30:01;;;;;;;22.17;14.73;;;4.80;99.90;;;;;;5053180;28;20563;-48
2023/03/07 09:32:29;;;;;;;22.67;14.20;;;4.80;99.90;;;;;;5053391;28;20510;-48
2023/03/07 09:34:56;;;;;;;19.63;13.37;;;4.90;99.90;;;;;;5052208;28;20531;-48
2023/03/07 09:37:23;;;;;;;23.30;15.30;;;4.80;99.90;;;;;;5052857;28;20487;-50
2023/03/07 09:39:50;;;;;;;18.50;12.07;;;4.90;99.90;;;;;;5052857;28;20795;-48
2023/03/07 09:42:22;;;;;;;22.33;13.47;;;5.00;99.90;;;;;;5053282;28;20467;-48
2023/03/07 09:45:07;;;;;;;18.87;14.00;;;4.90;99.90;;;;;;5053190;28;20539;-48
2023/03/07 09:48:10;;;;;;;21.90;12.77;;;5.00;99.90;;;;;;5053518;28;20483;-48
2023/03/07 09:50:46;;;;;;;35.10;14.30;;;5.10;99.90;;;;;;5035152;28;20900;-49
2023/03/07 09:53:20;;;;;;;21.53;13.17;;;5.10;99.90;;;;;;5052797;28;20505;-48
2023/03/07 09:55:50;;;;;;;26.37;13.73;;;5.10;99.90;;;;;;5052666;28;20865;-48
2023/03/07 09:58:23;;;;;;;18.67;13.07;;;5.20;99.90;;;;;;5053377;28;20448;-48
2023/03/07 10:00:57;;;;;;;21.33;13.47;;;5.30;99.90;;;;;;5052835;28;20882;-51
2023/03/07 10:03:32;;;;;;;19.07;13.03;;;5.40;99.90;;;;;;5052718;28;20479;-49
2023/03/07 10:06:08;;;;;;;23.87;14.60;;;5.30;99.90;;;;;;5052554;28;20460;-50
2023/03/07 10:08:34;;;;;;;23.23;13.80;;;5.30;99.90;;;;;;5052641;28;20487;-49
2023/03/07 10:11:13;;;;;;;18.80;12.10;;;5.50;99.90;;;;;;5051961;28;20509;-48
2023/03/07 10:13:53;;;;;;;22.50;13.03;;;5.40;99.90;;;;;;5052745;28;20475;-49
2023/03/07 10:16:26;;;;;;;24.38;14.57;;;5.40;99.90;;;;;;5052554;28;20522;-48
2023/03/07 10:19:10;;;;;;;22.30;14.37;;;5.50;99.90;;;;;;5052419;28;20210;-47
2023/03/07 10:21:47;;;;;;;18.90;12.70;;;5.60;99.90;;;;;;5052516;28;20441;-49
2023/03/07 10:24:36;;;;;;;23.27;15.20;;;5.60;99.90;;;;;;5052414;28;20992;-47
2023/03/07 10:27:06;;;;;;;23.90;14.70;;;5.70;99.90;;;;;;5052671;28;20552;-50
2023/03/07 10:29:40;;;;;;;19.60;12.83;;;5.90;99.90;;;;;;5052380;28;20480;-48
2023/03/07 10:32:20;;;;;;;19.40;14.30;;;6.00;99.90;;;;;;5052366;28;20563;-48
2023/03/07 10:34:52;;;;;;;20.40;14.07;;;6.10;99.90;;;;;;5052169;28;20528;-48
2023/03/07 10:37:24;;;;;;;22.40;12.53;;;5.90;99.90;;;;;;5052062;28;20489;-48
2023/03/07 10:39:53;;;;;;;21.40;14.27;;;6.10;99.90;;;;;;5051326;28;20457;-48
2023/03/07 10:42:22;;;;;;;17.43;12.67;;;6.20;99.90;;;;;;5052255;28;20525;-48
2023/03/07 10:44:50;;;;;;;19.80;12.37;;;6.30;99.90;;;;;;5051950;28;20448;-51
2023/03/07 10:47:21;;;;;;;22.20;14.27;;;6.40;99.90;;;;;;5051421;28;21007;-49
2023/03/07 10:49:49;;;;;;;21.77;14.47;;;6.50;99.90;;;;;;5052089;28;20473;-50
2023/03/07 10:52:29;;;;;;;23.63;14.43;;;6.50;99.90;;;;;;5051356;28;20476;-48
2023/03/07 10:55:12;;;;;;;19.67;14.40;;;6.60;99.90;;;;;;5052113;28;20520;-48
2023/03/07 10:57:39;;;;;;;17.80;13.30;;;6.70;99.90;;;;;;5050753;28;20532;-49
2023/03/07 11:00:16;;;;;;;22.80;12.97;;;6.60;99.90;;;;;;5051646;28;20484;-48
2023/03/07 11:02:44;;;;;;;19.00;14.07;;;6.70;99.90;;;;;;5031362;28;20457;-48
2023/03/07 11:05:26;;;;;;;19.00;13.77;;;6.80;99.90;;;;;;5031831;28;20937;-48
2023/03/07 11:07:54;;;;;;;22.13;13.80;;;6.80;99.90;;;;;;5031804;28;20924;-49
2023/03/07 11:10:27;;;;;;;23.67;14.37;;;6.80;99.90;;;;;;5030444;28;20478;-48
2023/03/07 11:12:56;;;;;;;17.47;12.60;;;6.80;99.90;;;;;;5031476;28;20446;-49
2023/03/07 11:15:26;;;;;;;19.90;13.57;;;7.00;99.90;;;;;;5030041;28;20466;-48
2023/03/07 11:17:53;;;;;;;20.13;13.73;;;7.10;99.90;;;;;;5030207;28;20449;-48
2023/03/07 11:20:22;;;;;;;19.63;12.47;;;7.40;99.90;;;;;;5030941;28;20972;-49
2023/03/07 11:22:50;;;;;;;17.77;13.03;;;7.30;99.90;;;;;;5031393;28;20998;-48
2023/03/07 11:25:24;;;;;;;20.80;12.40;;;7.20;99.90;;;;;;5031017;28;20506;-48
2023/03/07 11:27:53;;;;;;;21.17;13.20;;;7.10;99.90;;;;;;5032752;28;20527;-49
2023/03/07 11:30:24;;;;;;;24.37;13.67;;;7.20;99.90;;;;;;5048902;28;20469;-51
2023/03/07 11:32:59;;;;;;;21.90;12.73;;;7.10;99.90;;;;;;5049834;28;20455;-49
2023/03/07 11:35:37;;;;;;;22.47;13.37;;;7.10;99.90;;;;;;5050183;28;20564;-48
2023/03/07 11:38:09;;;;;;;17.13;13.00;;;7.00;99.90;;;;;;5048660;28;20468;-49
2023/03/07 11:40:43;;;;;;;18.60;13.07;;;7.40;99.90;;;;;;5046684;28;20524;-50
2023/03/07 11:43:20;;;;;;;21.23;12.57;;;7.50;99.90;;;;;;5050349;28;20528;-49
2023/03/07 11:45:53;;;;;;;16.63;12.60;;;7.40;99.90;;;;;;5050489;28;21002;-50
2023/03/07 11:48:35;;;;;;;18.47;12.23;;;7.40;99.90;;;;;;5048842;28;20461;-50
2023/03/07 11:51:03;;;;;;;21.40;13.80;;;7.30;99.90;;;;;;5048773;28;20477;-48
2023/03/07 11:53:48;;;;;;;20.63;14.23;;;7.20;99.90;;;;;;5050528;28;20437;-48
2023/03/07 11:56:29;;;;;;;36.03;22.17;;;7.30;99.90;;;;;;5051042;28;20527;-48
2023/03/07 11:59:34;;;;;;;19.40;13.33;;;7.40;99.90;;;;;;5052411;28;20453;-48
2023/03/07 12:02:03;;;;;;;20.40;14.50;;;7.50;99.90;;;;;;5053182;28;20526;-46
2023/03/07 12:04:53;;;;;;;22.40;14.60;;;7.60;99.90;;;;;;5053628;28;20481;-51
2023/03/07 12:07:46;;;;;;;22.07;14.43;;;7.50;99.90;;;;;;5053816;28;20493;-48
2023/03/07 12:10:29;;;;;;;21.97;13.93;;;7.80;99.90;;;;;;5053627;28;20524;-49
2023/03/07 12:13:11;;;;;;;18.90;13.40;;;7.80;99.90;;;;;;5054323;28;20782;-49
2023/03/07 12:15:42;;;;;;;21.30;14.63;;;7.80;99.90;;;;;;5053532;28;20501;-48
2023/03/07 12:18:36;;;;;;;18.20;14.03;;;7.80;99.90;;;;;;5054241;28;20998;-48
2023/03/07 12:21:21;;;;;;;17.80;13.33;;;7.70;99.90;;;;;;5054453;28;20533;-49
2023/03/07 12:23:52;;;;;;;20.70;14.00;;;7.80;99.90;;;;;;5054569;28;20488;-48
2023/03/07 12:26:25;;;;;;;19.20;14.33;;;7.90;99.90;;;;;;5054618;28;20500;-50
2023/03/07 12:29:00;;;;;;;19.73;14.27;;;7.80;99.90;;;;;;5054320;28;20469;-48
2023/03/07 12:31:31;;;;;;;21.77;14.03;;;7.90;99.90;;;;;;5054583;28;20568;-48
2023/03/07 12:34:03;;;;;;;19.40;12.80;;;7.70;99.90;;;;;;5054617;28;20495;-48
2023/03/07 12:36:38;;;;;;;19.30;14.47;;;7.70;99.90;;;;;;5054438;28;20519;-48
2023/03/07 12:39:14;;;;;;;19.53;13.10;;;7.80;99.90;;;;;;5054000;28;20539;-48
2023/03/07 12:41:52;;;;;;;20.30;14.23;;;7.80;99.90;;;;;;5054139;28;20472;-49
2023/03/07 12:44:30;;;;;;;18.97;14.13;;;7.90;99.90;;;;;;5054614;28;20869;-49
2023/03/07 12:47:02;;;;;;;21.23;13.57;;;7.80;99.90;;;;;;5054743;28;20544;-49
2023/03/07 12:49:35;;;;;;;22.23;14.77;;;8.00;99.90;;;;;;5054075;28;20528;-49